Terminal Aerodrome Forecast
Issued by NWS Mt. Holly, NJ

Home | Current Version | Previous Version | Text Only | Print | Product List | Glossary On
Versions: 1 2 3 4 5 6 7 8 9 10 11 12 13 14
000
FTUS41 KPHI 271120
TAFILG
TAF
KILG 271120Z 2712/2812 31006KT P6SM BKN080
     FM271600 32012G20KT P6SM BKN050
     FM280000 32011KT P6SM SCT200
     FM281100 35014KT P6SM SCT200=

USA.gov is the U.S. government's official web portal to all federal, state and local government web resources and services.